createdAt,value
2023-04-29T00:00:25.337Z,121.37
2023-04-29T00:01:25.356Z,123.37
2023-04-29T00:02:25.493Z,124.17
2023-04-29T00:03:25.637Z,121.17
2023-04-29T00:04:25.522Z,122.95
2023-04-29T00:05:25.715Z,122.67
2023-04-29T00:06:25.532Z,120.04
2023-04-29T00:07:25.415Z,120.75
2023-04-29T00:08:25.442Z,119.30
2023-04-29T00:09:25.494Z,121.92
2023-04-29T00:10:25.507Z,120.42
2023-04-29T00:11:25.599Z,122.66
2023-04-29T00:12:25.604Z,125.31
2023-04-29T00:13:25.644Z,122.91
2023-04-29T00:14:25.762Z,123.64
2023-04-29T00:15:25.809Z,124.64
2023-04-29T00:16:25.868Z,123.91
2023-04-29T00:17:25.898Z,121.77
2023-04-29T00:18:25.809Z,122.30
2023-04-29T00:19:25.820Z,121.96
2023-04-29T00:20:25.839Z,123.40
2023-04-29T00:21:25.831Z,120.40
2023-04-29T00:22:25.863Z,120.22
2023-04-29T00:23:25.849Z,120.00
2023-04-29T00:24:25.871Z,121.92
2023-04-29T00:25:25.898Z,125.50
2023-04-29T00:26:25.944Z,126.37
2023-04-29T00:27:25.972Z,124.53
2023-04-29T00:28:25.993Z,126.40
2023-04-29T00:29:25.994Z,124.84
2023-04-29T00:30:26.034Z,123.59
2023-04-29T00:31:26.097Z,124.15
2023-04-29T00:32:26.064Z,122.82
2023-04-29T00:33:26.085Z,122.11
2023-04-29T00:34:26.078Z,123.55
2023-04-29T00:35:26.099Z,122.61
2023-04-29T00:36:26.149Z,123.95
2023-04-29T00:37:26.156Z,125.36
2023-04-29T00:38:26.193Z,124.02
2023-04-29T00:39:26.168Z,123.43
2023-04-29T00:40:26.181Z,122.75
2023-04-29T00:41:26.193Z,124.13
2023-04-29T00:42:26.191Z,121.71
2023-04-29T00:43:26.215Z,121.44
2023-04-29T00:44:26.222Z,120.15
2023-04-29T00:45:26.234Z,121.95
2023-04-29T00:46:26.314Z,123.37
2023-04-29T00:47:26.297Z,123.15
2023-04-29T00:48:26.276Z,122.27
2023-04-29T00:49:26.278Z,120.48
2023-04-29T00:50:26.325Z,122.95
2023-04-29T00:51:26.335Z,122.10
2023-04-29T00:52:26.347Z,121.99
2023-04-29T00:53:26.364Z,121.07
2023-04-29T00:54:26.367Z,122.05
2023-04-29T00:55:26.409Z,122.86
2023-04-29T00:56:26.418Z,119.61
2023-04-29T00:57:26.430Z,120.02
2023-04-29T00:58:26.433Z,119.52
2023-04-29T00:59:26.430Z,119.38
2023-04-29T01:00:26.421Z,121.22
2023-04-29T01:01:26.458Z,120.29
2023-04-29T01:02:26.580Z,123.03
2023-04-29T01:03:26.595Z,121.47
2023-04-29T01:04:26.476Z,121.94
2023-04-29T01:05:26.434Z,122.69
2023-04-29T01:06:26.450Z,122.80
2023-04-29T01:07:26.451Z,120.50
2023-04-29T01:08:26.453Z,121.64
2023-04-29T01:09:26.459Z,120.57
2023-04-29T01:10:26.463Z,121.02
2023-04-29T01:11:26.452Z,120.35
2023-04-29T01:12:26.455Z,119.72
2023-04-29T01:13:26.457Z,122.54
2023-04-29T01:14:26.445Z,121.53
2023-04-29T01:15:26.468Z,123.15
2023-04-29T01:16:26.527Z,121.48
2023-04-29T01:17:26.471Z,122.33
2023-04-29T01:18:26.464Z,124.33
2023-04-29T01:19:26.476Z,124.74
2023-04-29T01:20:26.502Z,124.77
2023-04-29T01:21:26.498Z,124.76
2023-04-29T01:22:26.482Z,124.23
2023-04-29T01:23:26.493Z,122.71
2023-04-29T01:24:26.504Z,122.74
2023-04-29T01:25:26.508Z,121.54
2023-04-29T01:26:26.549Z,122.33
2023-04-29T01:27:26.510Z,121.18
2023-04-29T01:28:26.523Z,122.25
2023-04-29T01:29:26.505Z,121.45
2023-04-29T01:30:26.528Z,121.25
2023-04-29T01:31:26.571Z,118.23
2023-04-29T01:32:26.545Z,118.46
2023-04-29T01:33:26.510Z,118.88
2023-04-29T01:34:26.524Z,119.34
2023-04-29T01:35:26.533Z,120.69
2023-04-29T01:36:26.546Z,118.41
2023-04-29T01:37:26.533Z,120.20
2023-04-29T01:38:26.520Z,118.31
2023-04-29T01:39:26.545Z,119.11
2023-04-29T01:40:26.526Z,119.25
2023-04-29T01:41:26.528Z,119.27
2023-04-29T01:42:26.517Z,120.00
2023-04-29T01:43:26.577Z,121.88
2023-04-29T01:44:26.571Z,122.53
2023-04-29T01:45:26.600Z,122.39
2023-04-29T01:46:26.639Z,124.03
2023-04-29T01:47:26.685Z,124.05
2023-04-29T01:48:26.655Z,124.66
2023-04-29T01:49:26.668Z,123.45
2023-04-29T01:50:26.697Z,125.18
2023-04-29T01:51:26.751Z,124.37
2023-04-29T01:52:26.712Z,123.55
2023-04-29T01:53:26.736Z,123.51
2023-04-29T01:54:26.787Z,125.62
2023-04-29T01:55:26.772Z,125.01
2023-04-29T01:56:26.793Z,125.56
2023-04-29T01:57:26.797Z,125.61
2023-04-29T01:58:26.819Z,125.91
2023-04-29T01:59:26.808Z,124.83
2023-04-29T02:00:26.911Z,123.66
2023-04-29T02:01:26.849Z,125.94
2023-04-29T02:02:26.898Z,125.77
2023-04-29T02:03:26.923Z,125.68
2023-04-29T02:04:26.834Z,125.31
2023-04-29T02:05:26.848Z,127.06
2023-04-29T02:06:26.872Z,126.74
2023-04-29T02:07:26.850Z,127.21
2023-04-29T02:08:26.836Z,125.53
2023-04-29T02:09:26.823Z,124.24
2023-04-29T02:10:26.823Z,124.09
2023-04-29T02:11:26.923Z,121.49
2023-04-29T02:12:26.852Z,123.27
2023-04-29T02:13:26.857Z,123.96
2023-04-29T02:14:26.861Z,122.95
2023-04-29T02:15:26.880Z,127.09
2023-04-29T02:16:26.941Z,128.92
2023-04-29T02:17:26.930Z,129.18
2023-04-29T02:18:26.897Z,128.37
2023-04-29T02:19:26.932Z,126.28
2023-04-29T02:20:26.929Z,124.16
2023-04-29T02:21:26.955Z,122.63
2023-04-29T02:22:26.934Z,122.61
2023-04-29T02:23:26.955Z,124.03
2023-04-29T02:24:26.945Z,121.30
2023-04-29T02:25:26.979Z,123.33
2023-04-29T02:26:26.997Z,123.35
2023-04-29T02:27:26.988Z,125.69
2023-04-29T02:28:27.011Z,125.30
2023-04-29T02:29:27.001Z,126.06
2023-04-29T02:30:27.021Z,125.97
2023-04-29T02:31:27.053Z,123.87
2023-04-29T02:32:27.037Z,124.17
2023-04-29T02:33:27.016Z,121.84
2023-04-29T02:34:27.023Z,121.01
2023-04-29T02:35:27.070Z,123.30
2023-04-29T02:36:27.057Z,121.49
2023-04-29T02:37:27.040Z,122.12
2023-04-29T02:38:27.115Z,123.40
2023-04-29T02:39:27.065Z,123.55
2023-04-29T02:40:27.046Z,124.08
2023-04-29T02:41:27.054Z,125.04
2023-04-29T02:42:27.056Z,123.45
2023-04-29T02:43:27.043Z,123.94
2023-04-29T02:44:27.058Z,123.29
2023-04-29T02:45:27.031Z,121.48
2023-04-29T02:46:27.088Z,121.88
2023-04-29T02:47:27.099Z,122.49
2023-04-29T02:48:27.058Z,122.12
2023-04-29T02:49:27.049Z,124.10
2023-04-29T02:50:27.070Z,123.71
2023-04-29T02:51:27.054Z,122.55
2023-04-29T02:52:27.058Z,122.93
2023-04-29T02:53:27.067Z,124.78
2023-04-29T02:54:27.051Z,124.90
2023-04-29T02:55:27.066Z,124.46
2023-04-29T02:56:27.042Z,124.29
2023-04-29T02:57:27.055Z,122.52
2023-04-29T02:58:27.050Z,123.26
2023-04-29T02:59:27.051Z,121.09
2023-04-29T03:00:27.056Z,121.87
2023-04-29T03:01:27.120Z,120.89
2023-04-29T03:02:27.133Z,123.08
2023-04-29T03:03:27.259Z,124.46
2023-04-29T03:04:27.144Z,122.64
2023-04-29T03:05:27.072Z,122.67
2023-04-29T03:06:27.081Z,121.28
2023-04-29T03:07:27.092Z,119.19
2023-04-29T03:08:27.099Z,122.24
2023-04-29T03:09:27.142Z,120.41
2023-04-29T03:10:27.117Z,119.89
2023-04-29T03:11:27.130Z,119.25
2023-04-29T03:12:27.131Z,117.64
2023-04-29T03:13:27.151Z,117.96
2023-04-29T03:14:27.160Z,118.22
2023-04-29T03:15:27.161Z,116.76
2023-04-29T03:16:27.203Z,114.80
2023-04-29T03:17:27.214Z,115.07
2023-04-29T03:18:27.141Z,116.55
2023-04-29T03:19:27.150Z,116.46
2023-04-29T03:20:27.131Z,116.34
2023-04-29T03:21:27.147Z,115.62
2023-04-29T03:22:27.180Z,115.64
2023-04-29T03:23:27.196Z,116.14
2023-04-29T03:24:27.203Z,115.20
2023-04-29T03:25:27.198Z,116.76
2023-04-29T03:26:27.258Z,117.78
2023-04-29T03:27:27.213Z,118.58
2023-04-29T03:28:27.229Z,117.14
2023-04-29T03:29:27.226Z,118.42
2023-04-29T03:30:27.201Z,117.31
2023-04-29T03:31:27.267Z,114.76
2023-04-29T03:32:27.240Z,116.59
2023-04-29T03:33:27.202Z,115.39
2023-04-29T03:34:27.233Z,116.62
2023-04-29T03:35:27.230Z,117.66
2023-04-29T03:36:27.214Z,113.94
2023-04-29T03:37:27.223Z,113.74
2023-04-29T03:38:27.211Z,114.89
2023-04-29T03:39:27.234Z,116.97
2023-04-29T03:40:27.220Z,116.88
2023-04-29T03:41:27.248Z,114.76
2023-04-29T03:42:27.233Z,116.15
2023-04-29T03:43:27.246Z,115.74
2023-04-29T03:44:27.238Z,117.14
2023-04-29T03:45:27.238Z,115.76
2023-04-29T03:46:27.274Z,116.87
2023-04-29T03:47:27.239Z,118.78
2023-04-29T03:48:27.233Z,115.62
2023-04-29T03:49:27.209Z,115.90
2023-04-29T03:50:27.213Z,118.12
2023-04-29T03:51:27.204Z,122.00
2023-04-29T03:52:27.223Z,122.83
2023-04-29T03:53:27.229Z,123.58
2023-04-29T03:54:27.221Z,121.05
2023-04-29T03:55:27.238Z,122.12
2023-04-29T03:56:27.223Z,120.36
2023-04-29T03:57:27.226Z,120.51
2023-04-29T03:58:27.223Z,119.97
2023-04-29T03:59:27.229Z,118.85
2023-04-29T04:00:27.228Z,118.87
2023-04-29T04:01:27.202Z,118.03
2023-04-29T04:02:27.309Z,118.00
2023-04-29T04:03:27.337Z,116.86
2023-04-29T04:04:27.473Z,118.62
2023-04-29T04:05:27.240Z,119.58
2023-04-29T04:06:27.230Z,120.62
2023-04-29T04:07:27.269Z,118.83
2023-04-29T04:08:27.247Z,119.33
2023-04-29T04:09:27.245Z,118.24
2023-04-29T04:10:27.258Z,116.82
2023-04-29T04:11:27.249Z,117.40
2023-04-29T04:12:27.220Z,116.46
2023-04-29T04:13:27.214Z,115.45
2023-04-29T04:14:27.224Z,117.35
2023-04-29T04:15:27.216Z,116.40
2023-04-29T04:16:27.260Z,115.75
2023-04-29T04:17:27.230Z,116.24
2023-04-29T04:18:27.212Z,116.45
2023-04-29T04:19:27.220Z,115.68
2023-04-29T04:20:27.219Z,114.38
2023-04-29T04:21:27.205Z,115.15
2023-04-29T04:22:27.210Z,113.24
2023-04-29T04:23:27.181Z,116.54
2023-04-29T04:24:27.197Z,115.67
2023-04-29T04:25:27.185Z,116.27
2023-04-29T04:26:27.176Z,115.95
2023-04-29T04:27:27.182Z,114.24
2023-04-29T04:28:27.167Z,114.07
2023-04-29T04:29:27.174Z,113.57
2023-04-29T04:30:27.164Z,115.50
2023-04-29T04:31:27.236Z,113.72
2023-04-29T04:32:27.218Z,115.80
2023-04-29T04:33:27.171Z,115.11
2023-04-29T04:34:27.192Z,117.01
2023-04-29T04:35:27.186Z,116.73
2023-04-29T04:36:27.226Z,114.44
2023-04-29T04:37:27.205Z,113.61
2023-04-29T04:38:27.182Z,116.10
2023-04-29T04:39:27.182Z,115.70
2023-04-29T04:40:27.187Z,117.35
2023-04-29T04:41:27.182Z,118.93
2023-04-29T04:42:27.173Z,114.54
2023-04-29T04:43:27.162Z,115.23
2023-04-29T04:44:27.164Z,115.45
2023-04-29T04:45:27.210Z,116.30
2023-04-29T04:46:27.137Z,115.10
2023-04-29T04:47:27.153Z,116.13
2023-04-29T04:48:27.176Z,115.70
2023-04-29T04:49:27.148Z,112.30
2023-04-29T04:50:27.122Z,113.89
2023-04-29T04:51:27.207Z,115.24
2023-04-29T04:52:27.148Z,115.61
2023-04-29T04:53:27.141Z,113.51
2023-04-29T04:54:27.136Z,115.99
2023-04-29T04:55:27.168Z,115.86
2023-04-29T04:56:27.133Z,116.82
2023-04-29T04:57:27.164Z,116.95
2023-04-29T04:58:27.174Z,115.80
2023-04-29T04:59:27.218Z,115.99
2023-04-29T05:00:27.152Z,113.93
2023-04-29T05:01:27.222Z,114.34
2023-04-29T05:02:27.305Z,113.34
2023-04-29T05:03:27.183Z,112.15
2023-04-29T05:04:27.276Z,112.69
2023-04-29T05:05:27.134Z,113.58
2023-04-29T05:06:27.144Z,113.07
2023-04-29T05:07:27.138Z,110.93
2023-04-29T05:08:27.174Z,112.18
2023-04-29T05:09:27.219Z,114.13
2023-04-29T05:10:27.298Z,115.90
2023-04-29T05:11:27.325Z,114.99
2023-04-29T05:12:27.350Z,116.07
2023-04-29T05:13:27.242Z,116.35
2023-04-29T05:14:27.226Z,115.45
2023-04-29T05:15:27.237Z,117.50
2023-04-29T05:16:27.269Z,117.80
2023-04-29T05:17:27.279Z,118.50
2023-04-29T05:18:27.230Z,119.47
2023-04-29T05:19:27.232Z,119.69
2023-04-29T05:20:27.217Z,118.79
2023-04-29T05:21:27.232Z,119.69
2023-04-29T05:22:27.262Z,117.08
2023-04-29T05:23:27.270Z,116.52
2023-04-29T05:24:27.277Z,116.68
2023-04-29T05:25:27.261Z,117.57
2023-04-29T05:26:27.301Z,116.52
2023-04-29T05:27:27.300Z,116.99
2023-04-29T05:28:28.332Z,118.10
2023-04-29T05:29:27.308Z,116.70
2023-04-29T05:30:27.328Z,115.76
2023-04-29T05:31:27.391Z,115.68
2023-04-29T05:32:27.361Z,114.43
2023-04-29T05:33:27.360Z,118.20
2023-04-29T05:34:27.383Z,117.21
2023-04-29T05:35:27.387Z,116.66
2023-04-29T05:36:27.398Z,117.67
2023-04-29T05:37:27.428Z,117.69
2023-04-29T05:38:27.461Z,117.99
2023-04-29T05:39:27.462Z,120.02
2023-04-29T05:40:27.448Z,119.76
2023-04-29T05:41:27.476Z,121.46
2023-04-29T05:42:27.513Z,122.62
2023-04-29T05:43:27.513Z,123.64
2023-04-29T05:44:27.506Z,122.93
2023-04-29T05:45:27.528Z,118.66
2023-04-29T05:46:27.611Z,123.37
2023-04-29T05:47:27.644Z,127.08
2023-04-29T05:48:27.746Z,122.66
2023-04-29T05:49:27.732Z,120.99
2023-04-29T05:50:27.731Z,123.94
2023-04-29T05:51:27.742Z,124.74
2023-04-29T05:52:27.837Z,126.23
2023-04-29T05:53:27.803Z,126.49
2023-04-29T05:54:27.821Z,125.41
2023-04-29T05:55:27.876Z,125.79
2023-04-29T05:56:27.907Z,127.60
2023-04-29T05:57:27.928Z,125.21
2023-04-29T05:58:27.989Z,125.49
2023-04-29T05:59:28.041Z,126.72
2023-04-29T06:00:28.114Z,125.43
2023-04-29T06:01:28.157Z,125.12
2023-04-29T06:02:28.396Z,126.00
2023-04-29T06:03:28.423Z,124.46
2023-04-29T06:04:28.630Z,127.02
2023-04-29T06:05:28.783Z,126.42
2023-04-29T06:06:28.510Z,123.82
2023-04-29T06:07:28.540Z,126.02
2023-04-29T06:08:28.607Z,125.20
2023-04-29T06:09:28.701Z,125.04
2023-04-29T06:10:28.762Z,123.32
2023-04-29T06:11:28.792Z,124.05
2023-04-29T06:12:28.854Z,124.68
2023-04-29T06:13:28.902Z,125.15
2023-04-29T06:14:28.969Z,125.77
2023-04-29T06:15:29.039Z,125.94
2023-04-29T06:16:29.122Z,126.32
2023-04-29T06:17:29.161Z,126.61
2023-04-29T06:18:29.195Z,126.37
2023-04-29T06:19:29.257Z,126.64
2023-04-29T06:20:29.323Z,125.94
2023-04-29T06:21:29.404Z,126.46
2023-04-29T06:22:29.440Z,125.37
2023-04-29T06:23:29.498Z,124.81
2023-04-29T06:24:29.566Z,125.09
2023-04-29T06:25:29.633Z,124.30
2023-04-29T06:26:29.683Z,124.72
2023-04-29T06:27:29.756Z,126.15
2023-04-29T06:28:29.761Z,124.27
2023-04-29T06:29:29.808Z,127.63
2023-04-29T06:30:29.855Z,124.19
2023-04-29T06:31:29.915Z,126.93
2023-04-29T06:32:29.948Z,124.79
2023-04-29T06:33:29.957Z,126.72
2023-04-29T06:34:29.987Z,122.38
2023-04-29T06:35:30.018Z,125.19
2023-04-29T06:36:30.080Z,124.28
2023-04-29T06:37:30.086Z,124.43
2023-04-29T06:38:30.115Z,122.60
2023-04-29T06:39:30.142Z,124.36
2023-04-29T06:40:30.200Z,123.22
2023-04-29T06:41:30.220Z,124.42
2023-04-29T06:42:30.239Z,123.00
2023-04-29T06:43:30.263Z,124.70
2023-04-29T06:44:30.311Z,122.50
2023-04-29T06:45:30.325Z,122.96
2023-04-29T06:46:30.411Z,122.62
2023-04-29T06:47:30.404Z,121.96
2023-04-29T06:48:30.383Z,122.87
2023-04-29T06:49:30.402Z,122.33
2023-04-29T06:50:30.413Z,122.84
2023-04-29T06:51:30.425Z,124.04
2023-04-29T06:52:30.466Z,124.86
2023-04-29T06:53:30.465Z,125.93
2023-04-29T06:54:30.448Z,126.28
2023-04-29T06:55:30.457Z,123.22
2023-04-29T06:56:30.461Z,125.84
2023-04-29T06:57:30.469Z,127.65
2023-04-29T06:58:30.468Z,128.18
2023-04-29T06:59:30.482Z,129.07
2023-04-29T07:00:30.496Z,128.32
2023-04-29T07:01:30.551Z,129.22
2023-04-29T07:02:30.539Z,129.03
2023-04-29T07:03:30.593Z,129.50
2023-04-29T07:04:30.519Z,128.31
2023-04-29T07:05:30.492Z,127.32
2023-04-29T07:06:30.488Z,128.57
2023-04-29T07:07:30.500Z,126.52
2023-04-29T07:08:30.489Z,126.13
2023-04-29T07:09:30.534Z,124.38
2023-04-29T07:10:30.572Z,125.66
2023-04-29T07:11:30.640Z,127.62
2023-04-29T07:12:30.696Z,125.35
2023-04-29T07:13:30.738Z,126.93
2023-04-29T07:14:30.813Z,126.16
2023-04-29T07:15:30.878Z,124.27
2023-04-29T07:16:30.967Z,124.70
2023-04-29T07:17:31.049Z,123.96
2023-04-29T07:18:31.027Z,125.09
2023-04-29T07:19:31.077Z,124.51
2023-04-29T07:20:31.153Z,126.03
2023-04-29T07:21:31.176Z,125.16
2023-04-29T07:22:31.234Z,126.64
2023-04-29T07:23:31.254Z,123.19
2023-04-29T07:24:31.309Z,122.04
2023-04-29T07:25:31.355Z,122.08
2023-04-29T07:26:31.382Z,123.04
2023-04-29T07:27:31.419Z,120.59
2023-04-29T07:28:31.454Z,120.22
2023-04-29T07:29:31.599Z,118.81
2023-04-29T07:30:31.535Z,119.06
2023-04-29T07:31:31.753Z,117.81
2023-04-29T07:32:31.691Z,118.30
2023-04-29T07:33:31.586Z,115.72
2023-04-29T07:34:31.610Z,116.68
2023-04-29T07:35:31.680Z,116.19
2023-04-29T07:36:31.676Z,116.08
2023-04-29T07:37:31.684Z,116.11
2023-04-29T07:38:31.741Z,115.04
2023-04-29T07:39:31.729Z,115.27
2023-04-29T07:40:31.750Z,111.64
2023-04-29T07:41:31.788Z,110.80
2023-04-29T07:42:31.833Z,109.13
2023-04-29T07:43:31.813Z,105.45
2023-04-29T07:44:31.837Z,104.04
2023-04-29T07:45:31.851Z,102.01
2023-04-29T07:46:31.913Z,102.56
2023-04-29T07:47:31.893Z,99.58
2023-04-29T07:48:31.912Z,98.25
2023-04-29T07:49:31.917Z,101.96
2023-04-29T07:50:31.930Z,102.80
2023-04-29T07:51:31.968Z,104.75
2023-04-29T07:52:31.966Z,102.11
2023-04-29T07:53:31.980Z,100.76
2023-04-29T07:54:31.972Z,98.27
2023-04-29T07:55:31.993Z,96.21
2023-04-29T07:56:31.993Z,96.06
2023-04-29T07:57:32.007Z,92.74
2023-04-29T07:58:32.001Z,93.75
2023-04-29T07:59:32.010Z,90.67
2023-04-29T08:00:32.017Z,89.55
2023-04-29T08:01:32.041Z,89.13
2023-04-29T08:02:32.118Z,85.87
2023-04-29T08:03:32.119Z,83.79
2023-04-29T08:04:32.202Z,83.75
2023-04-29T08:05:32.238Z,83.33
2023-04-29T08:06:32.017Z,81.60
2023-04-29T08:07:32.011Z,81.26
2023-04-29T08:08:32.041Z,81.81
2023-04-29T08:09:32.011Z,81.87
2023-04-29T08:10:32.020Z,79.62
2023-04-29T08:11:32.044Z,80.42
2023-04-29T08:12:32.036Z,78.87
2023-04-29T08:13:32.025Z,79.28
2023-04-29T08:14:32.049Z,82.39
2023-04-29T08:15:32.051Z,80.09
2023-04-29T08:16:32.092Z,80.74
2023-04-29T08:17:32.045Z,81.91
2023-04-29T08:18:32.031Z,83.28
2023-04-29T08:19:32.053Z,84.79
2023-04-29T08:20:32.056Z,85.08
2023-04-29T08:21:32.100Z,82.95
2023-04-29T08:22:32.113Z,84.50
2023-04-29T08:23:32.136Z,83.62
2023-04-29T08:24:32.206Z,83.56
2023-04-29T08:25:32.242Z,83.12
2023-04-29T08:26:32.310Z,84.85
2023-04-29T08:27:32.367Z,83.98
2023-04-29T08:28:32.434Z,86.70
2023-04-29T08:29:32.480Z,84.04
2023-04-29T08:30:32.571Z,84.65
2023-04-29T08:31:32.664Z,86.66
2023-04-29T08:32:32.745Z,86.36
2023-04-29T08:33:32.744Z,83.89
2023-04-29T08:34:32.789Z,84.93
2023-04-29T08:35:32.847Z,83.78
2023-04-29T08:36:32.906Z,83.84
2023-04-29T08:37:32.965Z,80.35
2023-04-29T08:38:33.050Z,80.51
2023-04-29T08:39:33.085Z,77.19
2023-04-29T08:40:33.133Z,77.54
2023-04-29T08:41:33.217Z,74.40
2023-04-29T08:42:33.228Z,75.83
2023-04-29T08:43:33.291Z,73.41
2023-04-29T08:44:33.331Z,71.35
2023-04-29T08:45:33.360Z,75.77
2023-04-29T08:46:33.425Z,73.13
2023-04-29T08:47:33.727Z,74.74
2023-04-29T08:48:33.630Z,72.90
2023-04-29T08:49:33.542Z,72.16
2023-04-29T08:50:33.576Z,71.28
2023-04-29T08:51:33.611Z,70.98
2023-04-29T08:52:33.698Z,71.48
2023-04-29T08:53:33.684Z,71.60
2023-04-29T08:54:33.722Z,72.58
2023-04-29T08:55:33.754Z,72.86
2023-04-29T08:56:33.777Z,75.99
2023-04-29T08:57:33.836Z,76.77
2023-04-29T08:58:33.869Z,74.01
2023-04-29T08:59:33.890Z,74.62
2023-04-29T09:00:33.924Z,73.68
2023-04-29T09:01:34.031Z,71.99
2023-04-29T09:02:34.036Z,72.13
2023-04-29T09:03:34.076Z,71.88
2023-04-29T09:04:34.051Z,70.50
2023-04-29T09:05:34.077Z,73.75
2023-04-29T09:06:34.130Z,72.56
2023-04-29T09:07:34.181Z,73.92
2023-04-29T09:08:34.173Z,74.79
2023-04-29T09:09:34.218Z,74.24
2023-04-29T09:10:34.244Z,76.26
2023-04-29T09:11:34.315Z,77.85
2023-04-29T09:12:34.323Z,80.85
2023-04-29T09:13:34.363Z,83.35
2023-04-29T09:14:34.440Z,86.26
2023-04-29T09:15:34.426Z,89.47
2023-04-29T09:16:34.522Z,89.29
2023-04-29T09:17:34.505Z,90.05
2023-04-29T09:18:34.506Z,88.96
2023-04-29T09:19:34.552Z,88.67
2023-04-29T09:20:34.573Z,89.27
2023-04-29T09:21:34.594Z,87.99
2023-04-29T09:22:34.611Z,88.57
2023-04-29T09:23:34.639Z,88.36
2023-04-29T09:24:34.666Z,85.48
2023-04-29T09:25:34.692Z,87.97
2023-04-29T09:26:34.741Z,87.56
2023-04-29T09:27:34.750Z,88.50
2023-04-29T09:28:34.826Z,90.32
2023-04-29T09:29:34.874Z,91.84
2023-04-29T09:30:34.858Z,93.35
2023-04-29T09:31:34.922Z,92.71
2023-04-29T09:32:36.372Z,96.12
2023-04-29T09:33:35.121Z,94.43
2023-04-29T09:34:35.148Z,93.61
2023-04-29T09:35:35.177Z,95.51
2023-04-29T09:36:35.204Z,92.15
2023-04-29T09:37:35.220Z,93.15
2023-04-29T09:38:35.248Z,93.02
2023-04-29T09:39:35.266Z,93.44
2023-04-29T09:40:46.646Z,91.01
2023-04-29T09:41:36.285Z,91.30
2023-04-29T09:42:35.288Z,91.95
2023-04-29T09:43:35.292Z,93.79
2023-04-29T09:44:35.262Z,95.13
2023-04-29T09:45:35.270Z,96.45
2023-04-29T09:46:35.273Z,96.89
2023-04-29T09:47:35.284Z,97.07
2023-04-29T09:48:35.250Z,97.56
2023-04-29T09:49:35.240Z,96.06
2023-04-29T09:50:35.232Z,98.42
2023-04-29T09:51:35.242Z,99.31
2023-04-29T09:52:35.225Z,94.63
2023-04-29T09:53:35.221Z,94.35
2023-04-29T09:54:35.198Z,94.66
2023-04-29T09:55:35.193Z,95.76
2023-04-29T09:56:35.216Z,95.76
2023-04-29T09:57:35.195Z,97.34
2023-04-29T09:58:35.194Z,96.15
2023-04-29T09:59:35.207Z,92.33
2023-04-29T10:00:35.211Z,95.47
2023-04-29T10:01:35.271Z,92.55
2023-04-29T10:02:35.312Z,91.63
2023-04-29T10:03:35.372Z,94.01
2023-04-29T10:04:35.329Z,92.09
2023-04-29T10:05:35.303Z,93.57
2023-04-29T10:06:35.308Z,91.01
2023-04-29T10:07:35.336Z,93.63
2023-04-29T10:08:35.437Z,94.13
2023-04-29T10:09:35.339Z,93.83
2023-04-29T10:10:35.370Z,91.02
2023-04-29T10:11:35.394Z,91.81
2023-04-29T10:12:35.399Z,92.52
2023-04-29T10:13:35.520Z,91.97
2023-04-29T10:14:35.419Z,92.50
2023-04-29T10:15:35.439Z,90.80
2023-04-29T10:16:35.468Z,90.96
2023-04-29T10:17:35.438Z,91.98
2023-04-29T10:18:35.472Z,92.54
2023-04-29T10:19:35.439Z,90.02
2023-04-29T10:20:35.459Z,89.62
2023-04-29T10:21:35.456Z,88.65
2023-04-29T10:22:35.481Z,91.44
2023-04-29T10:23:35.472Z,90.39
2023-04-29T10:24:35.496Z,89.15
2023-04-29T10:25:35.501Z,85.11
2023-04-29T10:26:35.511Z,86.84
2023-04-29T10:27:35.514Z,86.34
2023-04-29T10:28:35.508Z,86.38
2023-04-29T10:29:35.547Z,87.03
2023-04-29T10:30:35.557Z,84.36
2023-04-29T10:31:35.592Z,86.02
2023-04-29T10:32:49.622Z,84.68
2023-04-29T10:33:36.632Z,84.80
2023-04-29T10:34:35.521Z,84.95
2023-04-29T10:35:35.530Z,85.99
2023-04-29T10:36:35.509Z,84.86
2023-04-29T10:37:35.501Z,86.61
2023-04-29T10:38:35.514Z,87.06
2023-04-29T10:39:35.493Z,86.47
2023-04-29T10:40:35.482Z,85.66
2023-04-29T10:41:35.496Z,85.43
2023-04-29T10:42:35.467Z,89.92
2023-04-29T10:43:35.480Z,90.51
2023-04-29T10:44:35.452Z,94.70
2023-04-29T10:45:35.479Z,93.15
2023-04-29T10:46:35.469Z,101.10
2023-04-29T10:47:35.437Z,101.59
2023-04-29T10:48:35.439Z,97.08
2023-04-29T10:49:35.451Z,99.02
2023-04-29T10:50:35.413Z,98.39
2023-04-29T10:51:35.462Z,98.99
2023-04-29T10:52:35.404Z,99.24
2023-04-29T10:53:35.395Z,101.05
2023-04-29T10:54:35.527Z,101.79
2023-04-29T10:55:35.393Z,103.64
2023-04-29T10:56:35.370Z,103.82
2023-04-29T10:57:35.364Z,108.53
2023-04-29T10:58:35.369Z,106.87
2023-04-29T10:59:35.364Z,104.87
2023-04-29T11:00:35.347Z,105.79
2023-04-29T11:01:35.501Z,106.33
2023-04-29T11:02:35.397Z,108.18
2023-04-29T11:03:35.475Z,107.83
2023-04-29T11:04:35.384Z,106.31
2023-04-29T11:05:35.326Z,112.20
2023-04-29T11:06:35.308Z,108.20
2023-04-29T11:07:35.316Z,108.42
2023-04-29T11:08:35.309Z,105.25
2023-04-29T11:09:35.294Z,109.16
2023-04-29T11:10:35.284Z,105.95
2023-04-29T11:11:35.280Z,107.60
2023-04-29T11:12:35.311Z,105.25
2023-04-29T11:13:35.295Z,108.56
2023-04-29T11:14:35.319Z,109.73
2023-04-29T11:15:35.327Z,107.23
2023-04-29T11:16:35.378Z,107.85
2023-04-29T11:17:35.381Z,107.53
2023-04-29T11:18:35.374Z,105.43
2023-04-29T11:19:35.395Z,109.85
2023-04-29T11:20:35.397Z,107.48
2023-04-29T11:21:35.444Z,109.99
2023-04-29T11:22:35.445Z,110.85
2023-04-29T11:23:35.478Z,108.55
2023-04-29T11:24:35.497Z,112.38
2023-04-29T11:25:36.483Z,109.81
2023-04-29T11:26:35.540Z,111.11
2023-04-29T11:27:35.538Z,110.77
2023-04-29T11:28:35.584Z,112.36
2023-04-29T11:29:35.600Z,110.55
2023-04-29T11:30:35.605Z,112.49
2023-04-29T11:31:35.743Z,112.61
2023-04-29T11:32:35.772Z,110.63
2023-04-29T11:33:35.731Z,108.68
2023-04-29T11:34:35.710Z,111.07
2023-04-29T11:35:35.719Z,113.23
2023-04-29T11:36:35.759Z,114.53
2023-04-29T11:37:35.784Z,114.04
2023-04-29T11:38:35.786Z,113.16
2023-04-29T11:39:35.806Z,109.81
2023-04-29T11:40:35.827Z,108.41
2023-04-29T11:41:35.925Z,110.31
2023-04-29T11:42:35.878Z,107.12
2023-04-29T11:43:35.910Z,110.44
2023-04-29T11:44:35.952Z,107.39
2023-04-29T11:45:35.961Z,107.51
2023-04-29T11:46:36.067Z,107.44
2023-04-29T11:47:36.054Z,104.66
2023-04-29T11:48:36.028Z,105.85
2023-04-29T11:49:36.047Z,106.27
2023-04-29T11:50:36.069Z,108.35
2023-04-29T11:51:36.110Z,108.46
2023-04-29T11:52:36.136Z,105.79
2023-04-29T11:53:36.163Z,102.73
2023-04-29T11:54:36.177Z,106.10
2023-04-29T11:55:36.234Z,100.73
2023-04-29T11:56:36.251Z,99.26
2023-04-29T11:57:36.275Z,103.70
2023-04-29T11:58:36.291Z,105.08
2023-04-29T11:59:36.348Z,98.76
2023-04-29T12:00:36.400Z,99.25
2023-04-29T12:01:36.405Z,100.73
2023-04-29T12:02:36.598Z,97.18
2023-04-29T12:03:36.777Z,95.73
2023-04-29T12:04:36.605Z,92.20
2023-04-29T12:05:36.553Z,95.13
2023-04-29T12:06:36.586Z,93.57
2023-04-29T12:07:36.595Z,90.13
2023-04-29T12:08:36.636Z,86.40
2023-04-29T12:09:36.666Z,90.07
2023-04-29T12:10:36.710Z,87.71
2023-04-29T12:11:36.747Z,87.09
2023-04-29T12:12:36.764Z,86.66
2023-04-29T12:13:36.823Z,84.51
2023-04-29T12:14:36.862Z,84.31
2023-04-29T12:15:38.941Z,86.99
2023-04-29T12:16:37.022Z,86.77
2023-04-29T12:17:36.899Z,85.23
2023-04-29T12:18:36.863Z,83.15
2023-04-29T12:19:36.883Z,77.99
2023-04-29T12:20:36.847Z,82.02
2023-04-29T12:21:36.887Z,76.57
2023-04-29T12:22:36.859Z,78.03
2023-04-29T12:23:36.847Z,71.04
2023-04-29T12:24:36.887Z,75.55
2023-04-29T12:25:36.828Z,72.95
2023-04-29T12:26:36.824Z,71.79
2023-04-29T12:27:36.967Z,66.68
2023-04-29T12:28:36.820Z,65.51
2023-04-29T12:29:36.819Z,61.68
2023-04-29T12:30:36.776Z,66.75
2023-04-29T12:31:36.838Z,60.41
2023-04-29T12:32:36.893Z,59.75
2023-04-29T12:33:36.784Z,62.00
2023-04-29T12:34:36.772Z,57.66
2023-04-29T12:35:36.764Z,56.15